sensor_id;sensor_type;location;lat;lon;timestamp;P1;durP1;ratioP1;P2;durP2;ratioP2
3733;SDS011;1882;52.256;8.874;2023-07-16T00:01:20;2.97;;;2.70;;
3733;SDS011;1882;52.256;8.874;2023-07-16T00:03:47;7.60;;;2.83;;
3733;SDS011;1882;52.256;8.874;2023-07-16T00:06:14;4.50;;;2.93;;
3733;SDS011;1882;52.256;8.874;2023-07-16T00:08:41;5.30;;;3.37;;
3733;SDS011;1882;52.256;8.874;2023-07-16T00:11:07;4.60;;;2.77;;
3733;SDS011;1882;52.256;8.874;2023-07-16T00:13:34;4.57;;;2.83;;
3733;SDS011;1882;52.256;8.874;2023-07-16T00:16:00;4.40;;;2.63;;
3733;SDS011;1882;52.256;8.874;2023-07-16T00:18:27;5.13;;;2.70;;
3733;SDS011;1882;52.256;8.874;2023-07-16T00:20:55;4.17;;;2.50;;
3733;SDS011;1882;52.256;8.874;2023-07-16T00:23:21;5.77;;;2.80;;
3733;SDS011;1882;52.256;8.874;2023-07-16T00:25:48;4.60;;;2.80;;
3733;SDS011;1882;52.256;8.874;2023-07-16T00:28:15;6.43;;;3.00;;
3733;SDS011;1882;52.256;8.874;2023-07-16T00:30:41;6.30;;;3.20;;
3733;SDS011;1882;52.256;8.874;2023-07-16T00:33:08;6.07;;;3.00;;
3733;SDS011;1882;52.256;8.874;2023-07-16T00:35:35;3.10;;;2.67;;
3733;SDS011;1882;52.256;8.874;2023-07-16T00:38:01;3.80;;;2.77;;
3733;SDS011;1882;52.256;8.874;2023-07-16T00:40:28;3.50;;;2.40;;
3733;SDS011;1882;52.256;8.874;2023-07-16T00:42:55;5.23;;;2.73;;
3733;SDS011;1882;52.256;8.874;2023-07-16T00:45:21;7.13;;;3.20;;
3733;SDS011;1882;52.256;8.874;2023-07-16T00:47:48;3.63;;;2.90;;
3733;SDS011;1882;52.256;8.874;2023-07-16T00:50:16;3.60;;;2.63;;
3733;SDS011;1882;52.256;8.874;2023-07-16T00:52:43;3.90;;;2.70;;
3733;SDS011;1882;52.256;8.874;2023-07-16T00:55:10;5.00;;;2.80;;
3733;SDS011;1882;52.256;8.874;2023-07-16T00:57:38;6.83;;;3.27;;
3733;SDS011;1882;52.256;8.874;2023-07-16T01:00:05;5.83;;;3.00;;
3733;SDS011;1882;52.256;8.874;2023-07-16T01:02:32;4.53;;;2.60;;
3733;SDS011;1882;52.256;8.874;2023-07-16T01:04:59;3.53;;;2.40;;
3733;SDS011;1882;52.256;8.874;2023-07-16T01:07:27;5.07;;;2.70;;
3733;SDS011;1882;52.256;8.874;2023-07-16T01:09:55;5.23;;;2.57;;
3733;SDS011;1882;52.256;8.874;2023-07-16T01:12:22;2.90;;;2.50;;
3733;SDS011;1882;52.256;8.874;2023-07-16T01:14:50;5.13;;;2.77;;
3733;SDS011;1882;52.256;8.874;2023-07-16T01:17:18;3.60;;;2.50;;
3733;SDS011;1882;52.256;8.874;2023-07-16T01:19:44;3.30;;;2.57;;
3733;SDS011;1882;52.256;8.874;2023-07-16T01:22:25;4.13;;;2.90;;
3733;SDS011;1882;52.256;8.874;2023-07-16T01:25:07;4.10;;;2.97;;
3733;SDS011;1882;52.256;8.874;2023-07-16T01:30:32;4.63;;;2.50;;
3733;SDS011;1882;52.256;8.874;2023-07-16T01:32:59;4.57;;;2.80;;
3733;SDS011;1882;52.256;8.874;2023-07-16T01:35:29;3.23;;;2.60;;
3733;SDS011;1882;52.256;8.874;2023-07-16T01:37:56;4.77;;;2.80;;
3733;SDS011;1882;52.256;8.874;2023-07-16T01:40:23;2.73;;;2.50;;
3733;SDS011;1882;52.256;8.874;2023-07-16T01:42:50;3.90;;;2.73;;
3733;SDS011;1882;52.256;8.874;2023-07-16T01:45:16;5.30;;;2.73;;
3733;SDS011;1882;52.256;8.874;2023-07-16T01:47:52;3.07;;;2.77;;
3733;SDS011;1882;52.256;8.874;2023-07-16T01:50:20;7.83;;;3.20;;
3733;SDS011;1882;52.256;8.874;2023-07-16T01:52:47;6.20;;;3.03;;
3733;SDS011;1882;52.256;8.874;2023-07-16T01:55:13;11.10;;;3.20;;
3733;SDS011;1882;52.256;8.874;2023-07-16T01:57:40;4.13;;;2.73;;
3733;SDS011;1882;52.256;8.874;2023-07-16T02:00:07;3.50;;;3.00;;
3733;SDS011;1882;52.256;8.874;2023-07-16T02:02:44;5.10;;;2.60;;
3733;SDS011;1882;52.256;8.874;2023-07-16T02:05:13;4.27;;;2.50;;
3733;SDS011;1882;52.256;8.874;2023-07-16T02:07:40;5.63;;;2.87;;
3733;SDS011;1882;52.256;8.874;2023-07-16T02:10:07;9.73;;;2.70;;
3733;SDS011;1882;52.256;8.874;2023-07-16T02:12:34;4.20;;;2.63;;
3733;SDS011;1882;52.256;8.874;2023-07-16T02:15:01;7.23;;;3.00;;
3733;SDS011;1882;52.256;8.874;2023-07-16T02:17:27;7.80;;;2.70;;
3733;SDS011;1882;52.256;8.874;2023-07-16T02:19:54;3.83;;;2.90;;
3733;SDS011;1882;52.256;8.874;2023-07-16T02:22:21;4.17;;;2.60;;
3733;SDS011;1882;52.256;8.874;2023-07-16T02:24:48;4.50;;;2.70;;
3733;SDS011;1882;52.256;8.874;2023-07-16T02:27:15;6.23;;;2.70;;
3733;SDS011;1882;52.256;8.874;2023-07-16T02:29:42;3.57;;;2.60;;
3733;SDS011;1882;52.256;8.874;2023-07-16T02:32:08;6.40;;;3.00;;
3733;SDS011;1882;52.256;8.874;2023-07-16T02:34:36;3.40;;;2.80;;
3733;SDS011;1882;52.256;8.874;2023-07-16T02:37:03;4.13;;;2.83;;
3733;SDS011;1882;52.256;8.874;2023-07-16T02:39:30;3.60;;;3.00;;
3733;SDS011;1882;52.256;8.874;2023-07-16T02:41:56;5.03;;;3.00;;
3733;SDS011;1882;52.256;8.874;2023-07-16T02:44:23;5.60;;;3.30;;
3733;SDS011;1882;52.256;8.874;2023-07-16T02:46:50;7.20;;;3.30;;
3733;SDS011;1882;52.256;8.874;2023-07-16T02:49:17;4.47;;;2.93;;
3733;SDS011;1882;52.256;8.874;2023-07-16T02:51:44;6.80;;;2.87;;
3733;SDS011;1882;52.256;8.874;2023-07-16T02:54:10;5.30;;;2.80;;
3733;SDS011;1882;52.256;8.874;2023-07-16T02:56:37;5.03;;;2.70;;
3733;SDS011;1882;52.256;8.874;2023-07-16T02:59:04;6.97;;;3.20;;
3733;SDS011;1882;52.256;8.874;2023-07-16T03:01:30;6.20;;;2.87;;
3733;SDS011;1882;52.256;8.874;2023-07-16T03:03:57;4.70;;;3.10;;
3733;SDS011;1882;52.256;8.874;2023-07-16T03:06:24;4.70;;;2.97;;
3733;SDS011;1882;52.256;8.874;2023-07-16T03:08:50;3.57;;;3.00;;
3733;SDS011;1882;52.256;8.874;2023-07-16T03:11:17;4.83;;;3.03;;
3733;SDS011;1882;52.256;8.874;2023-07-16T03:13:44;4.40;;;3.40;;
3733;SDS011;1882;52.256;8.874;2023-07-16T03:16:11;4.00;;;2.93;;
3733;SDS011;1882;52.256;8.874;2023-07-16T03:18:37;4.63;;;3.27;;
3733;SDS011;1882;52.256;8.874;2023-07-16T03:21:04;5.03;;;3.60;;
3733;SDS011;1882;52.256;8.874;2023-07-16T03:23:31;4.87;;;3.40;;
3733;SDS011;1882;52.256;8.874;2023-07-16T03:25:58;5.60;;;3.63;;
3733;SDS011;1882;52.256;8.874;2023-07-16T03:28:25;4.60;;;3.37;;
3733;SDS011;1882;52.256;8.874;2023-07-16T03:30:52;3.90;;;2.97;;
3733;SDS011;1882;52.256;8.874;2023-07-16T03:33:20;5.67;;;3.27;;
3733;SDS011;1882;52.256;8.874;2023-07-16T03:35:48;7.50;;;3.57;;
3733;SDS011;1882;52.256;8.874;2023-07-16T03:38:17;5.67;;;3.50;;
3733;SDS011;1882;52.256;8.874;2023-07-16T03:40:47;4.63;;;3.13;;
3733;SDS011;1882;52.256;8.874;2023-07-16T03:43:15;7.00;;;3.60;;
3733;SDS011;1882;52.256;8.874;2023-07-16T03:45:43;6.30;;;3.43;;
3733;SDS011;1882;52.256;8.874;2023-07-16T03:48:10;6.00;;;3.50;;
3733;SDS011;1882;52.256;8.874;2023-07-16T03:50:37;6.77;;;3.50;;
3733;SDS011;1882;52.256;8.874;2023-07-16T03:53:03;4.70;;;3.03;;
3733;SDS011;1882;52.256;8.874;2023-07-16T03:55:30;5.83;;;3.53;;
3733;SDS011;1882;52.256;8.874;2023-07-16T03:57:57;3.93;;;3.10;;
3733;SDS011;1882;52.256;8.874;2023-07-16T04:00:24;5.10;;;3.30;;
3733;SDS011;1882;52.256;8.874;2023-07-16T04:02:51;5.67;;;3.43;;
3733;SDS011;1882;52.256;8.874;2023-07-16T04:05:18;4.80;;;3.23;;
3733;SDS011;1882;52.256;8.874;2023-07-16T04:07:49;6.40;;;3.57;;
3733;SDS011;1882;52.256;8.874;2023-07-16T04:10:16;6.37;;;3.40;;
3733;SDS011;1882;52.256;8.874;2023-07-16T04:12:42;4.83;;;3.20;;
3733;SDS011;1882;52.256;8.874;2023-07-16T04:15:09;4.63;;;3.47;;
3733;SDS011;1882;52.256;8.874;2023-07-16T04:17:37;4.20;;;3.40;;
3733;SDS011;1882;52.256;8.874;2023-07-16T04:20:03;5.03;;;3.43;;
3733;SDS011;1882;52.256;8.874;2023-07-16T04:22:31;3.50;;;2.93;;
3733;SDS011;1882;52.256;8.874;2023-07-16T04:24:58;4.07;;;3.20;;
3733;SDS011;1882;52.256;8.874;2023-07-16T04:27:25;6.17;;;3.50;;
3733;SDS011;1882;52.256;8.874;2023-07-16T04:29:52;8.67;;;3.53;;
3733;SDS011;1882;52.256;8.874;2023-07-16T04:32:19;5.23;;;3.20;;
3733;SDS011;1882;52.256;8.874;2023-07-16T04:34:45;7.63;;;3.47;;
3733;SDS011;1882;52.256;8.874;2023-07-16T04:37:12;3.90;;;2.70;;
3733;SDS011;1882;52.256;8.874;2023-07-16T04:39:39;4.57;;;3.23;;
3733;SDS011;1882;52.256;8.874;2023-07-16T04:42:05;4.20;;;3.20;;
3733;SDS011;1882;52.256;8.874;2023-07-16T04:44:32;3.67;;;3.00;;
3733;SDS011;1882;52.256;8.874;2023-07-16T04:46:59;6.60;;;2.97;;
3733;SDS011;1882;52.256;8.874;2023-07-16T04:49:25;4.57;;;2.83;;
3733;SDS011;1882;52.256;8.874;2023-07-16T04:51:52;3.90;;;2.70;;
3733;SDS011;1882;52.256;8.874;2023-07-16T04:54:19;5.03;;;2.60;;
3733;SDS011;1882;52.256;8.874;2023-07-16T04:56:45;3.53;;;2.70;;
3733;SDS011;1882;52.256;8.874;2023-07-16T04:59:12;2.83;;;2.37;;
3733;SDS011;1882;52.256;8.874;2023-07-16T05:01:38;4.17;;;2.80;;
3733;SDS011;1882;52.256;8.874;2023-07-16T05:04:05;8.07;;;3.13;;
3733;SDS011;1882;52.256;8.874;2023-07-16T05:06:34;3.63;;;2.90;;
3733;SDS011;1882;52.256;8.874;2023-07-16T05:09:01;2.63;;;2.27;;
3733;SDS011;1882;52.256;8.874;2023-07-16T05:11:27;5.37;;;3.03;;
3733;SDS011;1882;52.256;8.874;2023-07-16T05:13:54;5.27;;;2.70;;
3733;SDS011;1882;52.256;8.874;2023-07-16T05:16:22;2.70;;;2.50;;
3733;SDS011;1882;52.256;8.874;2023-07-16T05:18:49;5.77;;;2.90;;
3733;SDS011;1882;52.256;8.874;2023-07-16T05:21:15;4.33;;;2.50;;
3733;SDS011;1882;52.256;8.874;2023-07-16T05:23:42;2.67;;;2.40;;
3733;SDS011;1882;52.256;8.874;2023-07-16T05:26:09;3.37;;;2.50;;
3733;SDS011;1882;52.256;8.874;2023-07-16T05:28:35;3.00;;;2.40;;
3733;SDS011;1882;52.256;8.874;2023-07-16T05:31:02;6.63;;;2.50;;
3733;SDS011;1882;52.256;8.874;2023-07-16T05:33:29;3.30;;;2.40;;
3733;SDS011;1882;52.256;8.874;2023-07-16T05:35:56;4.87;;;2.30;;
3733;SDS011;1882;52.256;8.874;2023-07-16T05:38:23;4.00;;;2.40;;
3733;SDS011;1882;52.256;8.874;2023-07-16T05:40:50;3.43;;;2.50;;
3733;SDS011;1882;52.256;8.874;2023-07-16T05:43:16;3.50;;;2.57;;
3733;SDS011;1882;52.256;8.874;2023-07-16T05:45:43;5.10;;;2.80;;
3733;SDS011;1882;52.256;8.874;2023-07-16T05:48:10;3.03;;;2.40;;
3733;SDS011;1882;52.256;8.874;2023-07-16T05:50:38;6.20;;;2.83;;
3733;SDS011;1882;52.256;8.874;2023-07-16T05:53:05;5.03;;;3.00;;
3733;SDS011;1882;52.256;8.874;2023-07-16T05:55:31;5.67;;;2.77;;
3733;SDS011;1882;52.256;8.874;2023-07-16T05:57:58;4.43;;;2.43;;
3733;SDS011;1882;52.256;8.874;2023-07-16T06:00:25;4.60;;;2.90;;
3733;SDS011;1882;52.256;8.874;2023-07-16T06:02:51;5.50;;;2.47;;
3733;SDS011;1882;52.256;8.874;2023-07-16T06:05:18;5.57;;;2.97;;
3733;SDS011;1882;52.256;8.874;2023-07-16T06:07:45;3.77;;;2.50;;
3733;SDS011;1882;52.256;8.874;2023-07-16T06:10:11;5.97;;;2.67;;
3733;SDS011;1882;52.256;8.874;2023-07-16T06:12:38;4.60;;;2.30;;
3733;SDS011;1882;52.256;8.874;2023-07-16T06:15:05;6.93;;;2.73;;
3733;SDS011;1882;52.256;8.874;2023-07-16T06:17:32;4.60;;;2.60;;
3733;SDS011;1882;52.256;8.874;2023-07-16T06:19:59;8.30;;;2.80;;
3733;SDS011;1882;52.256;8.874;2023-07-16T06:22:25;4.93;;;2.50;;
3733;SDS011;1882;52.256;8.874;2023-07-16T06:24:52;3.37;;;2.57;;
3733;SDS011;1882;52.256;8.874;2023-07-16T06:27:19;5.23;;;3.00;;
3733;SDS011;1882;52.256;8.874;2023-07-16T06:29:45;6.43;;;3.00;;
3733;SDS011;1882;52.256;8.874;2023-07-16T06:32:12;6.40;;;2.67;;
3733;SDS011;1882;52.256;8.874;2023-07-16T06:34:39;4.40;;;2.80;;
3733;SDS011;1882;52.256;8.874;2023-07-16T06:37:05;3.63;;;2.80;;
3733;SDS011;1882;52.256;8.874;2023-07-16T06:39:32;7.20;;;3.60;;
3733;SDS011;1882;52.256;8.874;2023-07-16T06:41:59;5.13;;;3.50;;
3733;SDS011;1882;52.256;8.874;2023-07-16T06:44:26;5.53;;;3.10;;
3733;SDS011;1882;52.256;8.874;2023-07-16T06:46:56;11.43;;;3.43;;
3733;SDS011;1882;52.256;8.874;2023-07-16T06:49:39;4.40;;;3.47;;
3733;SDS011;1882;52.256;8.874;2023-07-16T06:52:07;8.13;;;3.70;;
3733;SDS011;1882;52.256;8.874;2023-07-16T06:54:34;9.40;;;3.40;;
3733;SDS011;1882;52.256;8.874;2023-07-16T06:57:05;13.77;;;4.27;;
3733;SDS011;1882;52.256;8.874;2023-07-16T06:59:32;6.00;;;3.77;;
3733;SDS011;1882;52.256;8.874;2023-07-16T07:01:59;6.10;;;3.43;;
3733;SDS011;1882;52.256;8.874;2023-07-16T07:04:26;13.87;;;3.40;;
3733;SDS011;1882;52.256;8.874;2023-07-16T07:06:52;6.30;;;3.93;;
3733;SDS011;1882;52.256;8.874;2023-07-16T07:09:19;10.57;;;4.13;;
3733;SDS011;1882;52.256;8.874;2023-07-16T07:11:51;9.03;;;4.10;;
3733;SDS011;1882;52.256;8.874;2023-07-16T07:14:18;8.93;;;4.20;;
3733;SDS011;1882;52.256;8.874;2023-07-16T07:16:45;6.17;;;4.03;;
3733;SDS011;1882;52.256;8.874;2023-07-16T07:19:11;7.10;;;3.90;;
3733;SDS011;1882;52.256;8.874;2023-07-16T07:21:38;9.17;;;3.90;;
3733;SDS011;1882;52.256;8.874;2023-07-16T07:24:05;8.43;;;4.23;;
3733;SDS011;1882;52.256;8.874;2023-07-16T07:26:32;6.07;;;3.93;;
3733;SDS011;1882;52.256;8.874;2023-07-16T07:28:58;5.97;;;4.00;;
3733;SDS011;1882;52.256;8.874;2023-07-16T07:31:25;8.90;;;3.93;;
3733;SDS011;1882;52.256;8.874;2023-07-16T07:33:52;6.10;;;4.00;;
3733;SDS011;1882;52.256;8.874;2023-07-16T07:36:20;7.33;;;4.33;;
3733;SDS011;1882;52.256;8.874;2023-07-16T07:38:46;14.90;;;4.50;;
3733;SDS011;1882;52.256;8.874;2023-07-16T07:41:13;5.73;;;4.07;;
3733;SDS011;1882;52.256;8.874;2023-07-16T07:43:39;8.40;;;4.03;;
3733;SDS011;1882;52.256;8.874;2023-07-16T07:46:09;7.20;;;3.87;;
3733;SDS011;1882;52.256;8.874;2023-07-16T07:48:36;7.97;;;4.13;;
3733;SDS011;1882;52.256;8.874;2023-07-16T07:51:03;12.10;;;5.67;;
3733;SDS011;1882;52.256;8.874;2023-07-16T07:53:29;9.13;;;4.30;;
3733;SDS011;1882;52.256;8.874;2023-07-16T07:55:56;8.20;;;4.50;;
3733;SDS011;1882;52.256;8.874;2023-07-16T07:58:23;13.90;;;5.07;;
3733;SDS011;1882;52.256;8.874;2023-07-16T08:00:49;9.50;;;4.80;;
3733;SDS011;1882;52.256;8.874;2023-07-16T08:03:16;8.37;;;4.40;;
3733;SDS011;1882;52.256;8.874;2023-07-16T08:05:43;16.80;;;5.13;;
3733;SDS011;1882;52.256;8.874;2023-07-16T08:08:10;9.00;;;4.33;;
3733;SDS011;1882;52.256;8.874;2023-07-16T08:10:36;9.00;;;4.60;;
3733;SDS011;1882;52.256;8.874;2023-07-16T08:13:03;7.20;;;4.20;;
3733;SDS011;1882;52.256;8.874;2023-07-16T08:15:32;7.43;;;4.60;;
3733;SDS011;1882;52.256;8.874;2023-07-16T08:17:59;9.23;;;5.37;;
3733;SDS011;1882;52.256;8.874;2023-07-16T08:20:26;9.80;;;4.83;;
3733;SDS011;1882;52.256;8.874;2023-07-16T08:22:53;10.60;;;4.67;;
3733;SDS011;1882;52.256;8.874;2023-07-16T08:25:20;11.53;;;4.33;;
3733;SDS011;1882;52.256;8.874;2023-07-16T08:27:47;9.37;;;4.40;;
3733;SDS011;1882;52.256;8.874;2023-07-16T08:30:14;6.20;;;4.00;;
3733;SDS011;1882;52.256;8.874;2023-07-16T08:32:40;12.73;;;4.30;;
3733;SDS011;1882;52.256;8.874;2023-07-16T08:35:07;9.70;;;4.10;;
3733;SDS011;1882;52.256;8.874;2023-07-16T08:37:38;6.27;;;4.60;;
3733;SDS011;1882;52.256;8.874;2023-07-16T08:40:05;7.37;;;4.40;;
3733;SDS011;1882;52.256;8.874;2023-07-16T08:42:32;7.00;;;4.40;;
3733;SDS011;1882;52.256;8.874;2023-07-16T08:44:59;9.30;;;4.13;;
3733;SDS011;1882;52.256;8.874;2023-07-16T08:47:26;5.40;;;3.87;;
3733;SDS011;1882;52.256;8.874;2023-07-16T08:49:54;7.93;;;4.60;;
3733;SDS011;1882;52.256;8.874;2023-07-16T08:52:24;8.27;;;4.37;;
3733;SDS011;1882;52.256;8.874;2023-07-16T08:54:53;8.27;;;4.37;;
3733;SDS011;1882;52.256;8.874;2023-07-16T08:57:20;7.90;;;4.50;;
3733;SDS011;1882;52.256;8.874;2023-07-16T08:59:48;13.00;;;5.00;;
3733;SDS011;1882;52.256;8.874;2023-07-16T09:02:16;13.40;;;4.20;;
3733;SDS011;1882;52.256;8.874;2023-07-16T09:04:44;5.67;;;3.87;;
3733;SDS011;1882;52.256;8.874;2023-07-16T09:07:12;9.60;;;4.10;;
3733;SDS011;1882;52.256;8.874;2023-07-16T09:09:40;7.47;;;4.43;;
3733;SDS011;1882;52.256;8.874;2023-07-16T09:12:11;9.17;;;4.60;;
3733;SDS011;1882;52.256;8.874;2023-07-16T09:14:40;6.90;;;4.30;;
3733;SDS011;1882;52.256;8.874;2023-07-16T09:17:07;9.07;;;4.47;;
3733;SDS011;1882;52.256;8.874;2023-07-16T09:19:34;7.73;;;4.83;;
3733;SDS011;1882;52.256;8.874;2023-07-16T09:22:02;8.97;;;4.30;;
3733;SDS011;1882;52.256;8.874;2023-07-16T09:24:29;8.63;;;4.60;;
3733;SDS011;1882;52.256;8.874;2023-07-16T09:26:56;6.73;;;4.10;;
3733;SDS011;1882;52.256;8.874;2023-07-16T09:29:24;9.23;;;4.60;;
3733;SDS011;1882;52.256;8.874;2023-07-16T09:31:59;8.20;;;4.60;;
3733;SDS011;1882;52.256;8.874;2023-07-16T09:34:29;11.37;;;4.50;;
3733;SDS011;1882;52.256;8.874;2023-07-16T09:36:56;9.57;;;4.70;;
3733;SDS011;1882;52.256;8.874;2023-07-16T09:39:24;6.30;;;4.50;;
3733;SDS011;1882;52.256;8.874;2023-07-16T09:41:52;9.90;;;4.47;;
3733;SDS011;1882;52.256;8.874;2023-07-16T09:44:19;10.20;;;4.90;;
3733;SDS011;1882;52.256;8.874;2023-07-16T09:46:46;7.83;;;4.57;;
3733;SDS011;1882;52.256;8.874;2023-07-16T09:49:14;8.43;;;4.80;;
3733;SDS011;1882;52.256;8.874;2023-07-16T09:51:42;12.03;;;4.70;;
3733;SDS011;1882;52.256;8.874;2023-07-16T09:54:09;5.90;;;4.13;;
3733;SDS011;1882;52.256;8.874;2023-07-16T09:56:41;5.90;;;4.33;;
3733;SDS011;1882;52.256;8.874;2023-07-16T09:59:13;6.87;;;4.23;;
3733;SDS011;1882;52.256;8.874;2023-07-16T10:01:41;6.23;;;4.17;;
3733;SDS011;1882;52.256;8.874;2023-07-16T10:04:11;6.93;;;4.37;;
3733;SDS011;1882;52.256;8.874;2023-07-16T10:06:48;6.33;;;4.20;;
3733;SDS011;1882;52.256;8.874;2023-07-16T10:12:23;10.23;;;4.70;;
3733;SDS011;1882;52.256;8.874;2023-07-16T10:14:52;4.13;;;3.43;;
3733;SDS011;1882;52.256;8.874;2023-07-16T10:17:23;6.80;;;4.00;;
3733;SDS011;1882;52.256;8.874;2023-07-16T10:22:40;4.70;;;4.10;;
3733;SDS011;1882;52.256;8.874;2023-07-16T10:27:34;9.50;;;4.03;;
3733;SDS011;1882;52.256;8.874;2023-07-16T10:30:02;6.30;;;4.10;;
3733;SDS011;1882;52.256;8.874;2023-07-16T10:32:31;5.50;;;3.80;;
3733;SDS011;1882;52.256;8.874;2023-07-16T10:34:59;5.90;;;4.00;;
3733;SDS011;1882;52.256;8.874;2023-07-16T10:37:26;7.03;;;4.27;;
3733;SDS011;1882;52.256;8.874;2023-07-16T10:39:53;4.40;;;3.90;;
3733;SDS011;1882;52.256;8.874;2023-07-16T10:42:23;7.30;;;4.17;;
3733;SDS011;1882;52.256;8.874;2023-07-16T10:45:00;6.63;;;3.93;;
3733;SDS011;1882;52.256;8.874;2023-07-16T10:47:34;6.57;;;3.90;;
3733;SDS011;1882;52.256;8.874;2023-07-16T10:50:06;7.43;;;3.90;;
3733;SDS011;1882;52.256;8.874;2023-07-16T10:52:36;7.20;;;4.13;;
3733;SDS011;1882;52.256;8.874;2023-07-16T10:55:06;7.00;;;4.13;;
3733;SDS011;1882;52.256;8.874;2023-07-16T10:57:33;6.60;;;3.80;;
3733;SDS011;1882;52.256;8.874;2023-07-16T11:00:01;5.93;;;3.77;;
3733;SDS011;1882;52.256;8.874;2023-07-16T11:02:28;7.23;;;3.90;;
3733;SDS011;1882;52.256;8.874;2023-07-16T11:04:55;5.73;;;3.80;;
3733;SDS011;1882;52.256;8.874;2023-07-16T11:07:23;9.30;;;4.03;;
3733;SDS011;1882;52.256;8.874;2023-07-16T11:09:53;8.83;;;3.70;;
3733;SDS011;1882;52.256;8.874;2023-07-16T11:12:21;14.40;;;3.70;;
3733;SDS011;1882;52.256;8.874;2023-07-16T11:14:53;6.80;;;3.90;;
3733;SDS011;1882;52.256;8.874;2023-07-16T11:17:21;7.03;;;4.00;;
3733;SDS011;1882;52.256;8.874;2023-07-16T11:19:51;7.03;;;4.03;;
3733;SDS011;1882;52.256;8.874;2023-07-16T11:22:18;5.20;;;3.93;;
3733;SDS011;1882;52.256;8.874;2023-07-16T11:24:47;7.60;;;3.90;;
3733;SDS011;1882;52.256;8.874;2023-07-16T11:30:02;7.23;;;3.90;;
3733;SDS011;1882;52.256;8.874;2023-07-16T11:35:04;5.30;;;4.10;;
3733;SDS011;1882;52.256;8.874;2023-07-16T11:37:32;4.83;;;3.50;;
3733;SDS011;1882;52.256;8.874;2023-07-16T11:40:01;5.73;;;3.93;;
3733;SDS011;1882;52.256;8.874;2023-07-16T11:42:36;12.13;;;4.00;;
3733;SDS011;1882;52.256;8.874;2023-07-16T11:45:05;7.83;;;4.10;;
3733;SDS011;1882;52.256;8.874;2023-07-16T11:47:42;5.70;;;3.93;;
3733;SDS011;1882;52.256;8.874;2023-07-16T11:50:10;6.13;;;3.90;;
3733;SDS011;1882;52.256;8.874;2023-07-16T11:52:38;5.40;;;3.73;;
3733;SDS011;1882;52.256;8.874;2023-07-16T11:55:04;6.10;;;4.00;;
3733;SDS011;1882;52.256;8.874;2023-07-16T11:57:31;6.23;;;3.63;;
3733;SDS011;1882;52.256;8.874;2023-07-16T11:59:58;5.30;;;4.10;;
3733;SDS011;1882;52.256;8.874;2023-07-16T12:02:26;7.10;;;3.80;;
3733;SDS011;1882;52.256;8.874;2023-07-16T12:04:54;7.90;;;3.80;;
3733;SDS011;1882;52.256;8.874;2023-07-16T12:07:37;5.67;;;3.80;;
3733;SDS011;1882;52.256;8.874;2023-07-16T12:10:05;5.73;;;3.47;;
3733;SDS011;1882;52.256;8.874;2023-07-16T12:12:33;8.23;;;4.40;;
3733;SDS011;1882;52.256;8.874;2023-07-16T12:15:04;8.00;;;4.00;;
3733;SDS011;1882;52.256;8.874;2023-07-16T12:17:32;6.93;;;3.67;;
3733;SDS011;1882;52.256;8.874;2023-07-16T12:19:59;7.87;;;4.40;;
3733;SDS011;1882;52.256;8.874;2023-07-16T12:22:26;6.27;;;4.30;;
3733;SDS011;1882;52.256;8.874;2023-07-16T12:24:53;7.10;;;4.00;;
3733;SDS011;1882;52.256;8.874;2023-07-16T12:27:21;5.27;;;3.80;;
3733;SDS011;1882;52.256;8.874;2023-07-16T12:29:48;6.23;;;4.00;;
3733;SDS011;1882;52.256;8.874;2023-07-16T12:32:14;12.43;;;4.10;;
3733;SDS011;1882;52.256;8.874;2023-07-16T12:34:41;5.00;;;3.83;;
3733;SDS011;1882;52.256;8.874;2023-07-16T12:37:08;5.93;;;4.00;;
3733;SDS011;1882;52.256;8.874;2023-07-16T12:39:34;7.93;;;3.37;;
3733;SDS011;1882;52.256;8.874;2023-07-16T12:42:03;6.73;;;3.90;;
3733;SDS011;1882;52.256;8.874;2023-07-16T12:44:30;6.67;;;4.37;;
3733;SDS011;1882;52.256;8.874;2023-07-16T12:46:57;6.50;;;3.67;;
3733;SDS011;1882;52.256;8.874;2023-07-16T12:49:24;7.23;;;3.80;;
3733;SDS011;1882;52.256;8.874;2023-07-16T12:51:51;8.50;;;3.70;;
3733;SDS011;1882;52.256;8.874;2023-07-16T12:54:18;7.63;;;3.47;;
3733;SDS011;1882;52.256;8.874;2023-07-16T12:56:45;7.00;;;3.83;;
3733;SDS011;1882;52.256;8.874;2023-07-16T12:59:12;7.90;;;4.00;;
3733;SDS011;1882;52.256;8.874;2023-07-16T13:01:38;7.60;;;4.00;;
3733;SDS011;1882;52.256;8.874;2023-07-16T13:04:05;6.40;;;3.60;;
3733;SDS011;1882;52.256;8.874;2023-07-16T13:06:35;5.40;;;3.57;;
3733;SDS011;1882;52.256;8.874;2023-07-16T13:09:02;6.07;;;3.57;;
3733;SDS011;1882;52.256;8.874;2023-07-16T13:11:31;5.03;;;3.40;;
3733;SDS011;1882;52.256;8.874;2023-07-16T13:13:58;8.77;;;3.60;;
3733;SDS011;1882;52.256;8.874;2023-07-16T13:16:25;6.10;;;3.50;;
3733;SDS011;1882;52.256;8.874;2023-07-16T13:18:53;4.67;;;3.17;;
3733;SDS011;1882;52.256;8.874;2023-07-16T13:21:19;5.43;;;3.77;;
3733;SDS011;1882;52.256;8.874;2023-07-16T13:23:47;7.77;;;3.43;;
3733;SDS011;1882;52.256;8.874;2023-07-16T13:26:13;5.80;;;3.23;;
3733;SDS011;1882;52.256;8.874;2023-07-16T13:28:41;5.40;;;3.60;;
3733;SDS011;1882;52.256;8.874;2023-07-16T13:31:07;8.80;;;3.80;;
3733;SDS011;1882;52.256;8.874;2023-07-16T13:33:34;5.80;;;3.37;;
3733;SDS011;1882;52.256;8.874;2023-07-16T13:36:04;5.93;;;3.80;;
3733;SDS011;1882;52.256;8.874;2023-07-16T13:38:31;12.23;;;3.60;;
3733;SDS011;1882;52.256;8.874;2023-07-16T13:41:00;5.77;;;3.90;;
3733;SDS011;1882;52.256;8.874;2023-07-16T13:43:33;4.60;;;3.50;;
3733;SDS011;1882;52.256;8.874;2023-07-16T13:46:00;4.67;;;3.87;;
3733;SDS011;1882;52.256;8.874;2023-07-16T13:48:27;6.60;;;3.90;;
3733;SDS011;1882;52.256;8.874;2023-07-16T13:50:56;4.60;;;3.60;;
3733;SDS011;1882;52.256;8.874;2023-07-16T13:53:23;8.70;;;3.70;;
3733;SDS011;1882;52.256;8.874;2023-07-16T13:55:52;4.53;;;3.60;;
3733;SDS011;1882;52.256;8.874;2023-07-16T13:58:19;5.43;;;3.67;;
3733;SDS011;1882;52.256;8.874;2023-07-16T14:00:47;5.97;;;3.80;;
3733;SDS011;1882;52.256;8.874;2023-07-16T14:03:13;9.10;;;3.73;;
3733;SDS011;1882;52.256;8.874;2023-07-16T14:05:43;7.00;;;3.10;;
3733;SDS011;1882;52.256;8.874;2023-07-16T14:08:10;7.07;;;3.80;;
3733;SDS011;1882;52.256;8.874;2023-07-16T14:10:37;6.30;;;3.47;;
3733;SDS011;1882;52.256;8.874;2023-07-16T14:13:06;7.33;;;3.20;;
3733;SDS011;1882;52.256;8.874;2023-07-16T14:15:35;5.30;;;3.20;;
3733;SDS011;1882;52.256;8.874;2023-07-16T14:18:04;8.37;;;3.00;;
3733;SDS011;1882;52.256;8.874;2023-07-16T14:20:31;4.87;;;3.10;;
3733;SDS011;1882;52.256;8.874;2023-07-16T14:22:57;6.60;;;2.93;;
3733;SDS011;1882;52.256;8.874;2023-07-16T14:25:24;4.90;;;3.20;;
3733;SDS011;1882;52.256;8.874;2023-07-16T14:28:05;5.20;;;3.10;;
3733;SDS011;1882;52.256;8.874;2023-07-16T14:30:35;6.30;;;3.23;;
3733;SDS011;1882;52.256;8.874;2023-07-16T14:33:06;5.10;;;3.30;;
3733;SDS011;1882;52.256;8.874;2023-07-16T14:35:35;4.57;;;3.00;;
3733;SDS011;1882;52.256;8.874;2023-07-16T14:38:16;5.07;;;3.27;;
3733;SDS011;1882;52.256;8.874;2023-07-16T14:40:43;4.90;;;2.93;;
3733;SDS011;1882;52.256;8.874;2023-07-16T14:43:12;4.20;;;3.00;;
3733;SDS011;1882;52.256;8.874;2023-07-16T14:45:46;5.80;;;3.30;;
3733;SDS011;1882;52.256;8.874;2023-07-16T14:48:13;4.33;;;3.07;;
3733;SDS011;1882;52.256;8.874;2023-07-16T14:50:40;4.30;;;3.00;;
3733;SDS011;1882;52.256;8.874;2023-07-16T14:53:10;8.47;;;3.17;;
3733;SDS011;1882;52.256;8.874;2023-07-16T14:55:39;5.97;;;3.20;;
3733;SDS011;1882;52.256;8.874;2023-07-16T14:58:06;4.27;;;3.50;;
3733;SDS011;1882;52.256;8.874;2023-07-16T15:00:34;5.63;;;3.50;;
3733;SDS011;1882;52.256;8.874;2023-07-16T15:03:09;4.07;;;3.30;;
3733;SDS011;1882;52.256;8.874;2023-07-16T15:05:37;6.03;;;3.13;;
3733;SDS011;1882;52.256;8.874;2023-07-16T15:08:07;4.37;;;2.70;;
3733;SDS011;1882;52.256;8.874;2023-07-16T15:10:33;5.77;;;3.07;;
3733;SDS011;1882;52.256;8.874;2023-07-16T15:13:00;5.13;;;3.37;;
3733;SDS011;1882;52.256;8.874;2023-07-16T15:16:03;4.97;;;3.40;;
3733;SDS011;1882;52.256;8.874;2023-07-16T15:22:24;8.47;;;3.60;;
3733;SDS011;1882;52.256;8.874;2023-07-16T15:24:55;8.20;;;3.43;;
3733;SDS011;1882;52.256;8.874;2023-07-16T15:27:43;5.60;;;3.33;;
3733;SDS011;1882;52.256;8.874;2023-07-16T15:30:09;6.60;;;3.60;;
3733;SDS011;1882;52.256;8.874;2023-07-16T15:32:37;9.30;;;3.60;;
3733;SDS011;1882;52.256;8.874;2023-07-16T15:35:04;4.90;;;3.40;;
3733;SDS011;1882;52.256;8.874;2023-07-16T15:37:32;4.77;;;3.10;;
3733;SDS011;1882;52.256;8.874;2023-07-16T15:39:59;5.53;;;3.60;;